createdAt,value
2022-12-24T00:01:15.688Z,99771.40
2022-12-24T00:02:47.516Z,99778.40
2022-12-24T00:04:19.368Z,99789.40
2022-12-24T00:05:51.630Z,99792.40
2022-12-24T00:07:23.484Z,99793.00
2022-12-24T00:08:55.263Z,99788.60
2022-12-24T00:10:26.989Z,99794.60
2022-12-24T00:11:59.092Z,99796.60
2022-12-24T00:13:30.847Z,99796.00
2022-12-24T00:15:05.780Z,99796.00
2022-12-24T00:16:38.137Z,99798.80
2022-12-24T00:18:10.041Z,99807.00
2022-12-24T00:19:43.238Z,99809.00
2022-12-24T00:21:16.130Z,99812.40
2022-12-24T00:22:47.960Z,99820.60
2022-12-24T00:24:19.715Z,99818.60
2022-12-24T00:25:51.473Z,99825.80
2022-12-24T00:27:23.260Z,99828.00
2022-12-24T00:28:55.588Z,99824.40
2022-12-24T00:30:27.352Z,99835.80
2022-12-24T00:32:00.333Z,99827.00
2022-12-24T00:33:32.065Z,99823.00
2022-12-24T00:35:04.006Z,99827.20
2022-12-24T00:36:35.778Z,99831.20
2022-12-24T00:38:08.875Z,99828.20
2022-12-24T00:39:40.592Z,99834.00
2022-12-24T00:41:29.149Z,99829.00
2022-12-24T00:43:01.573Z,99834.80
2022-12-24T00:44:33.353Z,99834.20
2022-12-24T00:46:05.101Z,99833.40
2022-12-24T00:47:37.443Z,99834.40
2022-12-24T00:49:12.819Z,99835.40
2022-12-24T00:50:44.574Z,99839.00
2022-12-24T00:52:16.495Z,99845.00
2022-12-24T00:53:49.502Z,99846.60
2022-12-24T00:55:21.330Z,99846.40
2022-12-24T00:56:53.093Z,99851.00
2022-12-24T00:58:24.822Z,99851.00
2022-12-24T00:59:56.554Z,99853.00
2022-12-24T01:01:29.075Z,99857.00
2022-12-24T01:03:01.190Z,99862.60
2022-12-24T01:04:51.756Z,99865.40
2022-12-24T01:06:23.503Z,99860.60
2022-12-24T01:07:55.326Z,99876.40
2022-12-24T01:09:27.218Z,99879.40
2022-12-24T01:10:59.377Z,99874.80
2022-12-24T01:12:31.195Z,99880.40
2022-12-24T01:14:03.088Z,99881.40
2022-12-24T01:15:37.529Z,99879.00
2022-12-24T01:17:09.642Z,99893.40
2022-12-24T01:18:41.438Z,99896.20
2022-12-24T01:20:17.193Z,99894.20
2022-12-24T01:21:48.881Z,99901.80
2022-12-24T01:23:20.691Z,99899.60
2022-12-24T01:24:52.539Z,99905.20
2022-12-24T01:26:24.266Z,99906.00
2022-12-24T01:27:56.128Z,99914.00
2022-12-24T01:29:28.007Z,99914.40
2022-12-24T01:30:59.810Z,99913.60
2022-12-24T01:32:31.726Z,99921.00
2022-12-24T01:34:03.602Z,99923.80
2022-12-24T01:35:35.527Z,99929.20
2022-12-24T01:37:07.283Z,99924.20
2022-12-24T01:38:40.129Z,99930.80
2022-12-24T01:40:35.460Z,99938.00
2022-12-24T01:42:42.945Z,99936.40
2022-12-24T01:44:33.449Z,99940.80
2022-12-24T01:46:14.864Z,99946.60
2022-12-24T01:47:47.546Z,99935.40
2022-12-24T01:49:19.509Z,99939.00
2022-12-24T01:50:59.477Z,99947.40
2022-12-24T01:52:36.249Z,99947.60
2022-12-24T01:54:28.335Z,99943.00
2022-12-24T01:56:01.498Z,99950.60
2022-12-24T01:57:46.396Z,99952.00
2022-12-24T01:59:21.127Z,99956.20
2022-12-24T02:00:53.316Z,99955.80
2022-12-24T02:02:27.387Z,99957.40
2022-12-24T02:04:00.111Z,99964.60
2022-12-24T02:05:49.961Z,99960.60
2022-12-24T02:07:22.290Z,99960.40
2022-12-24T02:08:55.988Z,99968.80
2022-12-24T02:10:27.830Z,99966.80
2022-12-24T02:12:01.324Z,99968.60
2022-12-24T02:13:33.071Z,99969.40
2022-12-24T02:15:10.436Z,99970.00
2022-12-24T02:17:08.710Z,99977.00
2022-12-24T02:19:16.682Z,99980.80
2022-12-24T02:21:19.703Z,99981.00
2022-12-24T02:23:13.940Z,99980.40
2022-12-24T02:25:12.826Z,99977.60
2022-12-24T02:27:33.062Z,99980.60
2022-12-24T02:29:32.959Z,99979.00
2022-12-24T02:31:22.609Z,99988.60
2022-12-24T02:33:42.536Z,99993.40
2022-12-24T02:35:29.334Z,100006.60
2022-12-24T02:37:19.924Z,99995.00
2022-12-24T02:39:04.860Z,100006.00
2022-12-24T02:40:48.805Z,100002.20
2022-12-24T02:42:28.275Z,100014.00
2022-12-24T02:44:00.301Z,100010.80
2022-12-24T02:45:35.959Z,100004.40
2022-12-24T02:47:10.701Z,100010.40
2022-12-24T02:48:47.828Z,100015.40
2022-12-24T02:50:19.868Z,100013.60
2022-12-24T02:51:51.787Z,100025.20
2022-12-24T02:53:23.486Z,100017.00
2022-12-24T02:54:58.683Z,100020.80
2022-12-24T02:56:48.550Z,100023.80
2022-12-24T02:58:45.004Z,100028.60
2022-12-24T03:00:20.672Z,100029.60
2022-12-24T03:02:19.539Z,100030.60
2022-12-24T03:04:19.803Z,100033.40
2022-12-24T03:06:04.985Z,100035.00
2022-12-24T03:08:11.573Z,100032.80
2022-12-24T03:10:13.142Z,100038.00
2022-12-24T03:11:55.191Z,100034.60
2022-12-24T03:13:28.256Z,100042.20
2022-12-24T03:15:02.059Z,100037.60
2022-12-24T03:16:34.249Z,100039.20
2022-12-24T03:18:09.655Z,100036.80
2022-12-24T03:19:42.035Z,100037.80
2022-12-24T03:21:34.819Z,100029.40
2022-12-24T03:23:08.099Z,100033.20
2022-12-24T03:24:39.908Z,100034.20
2022-12-24T03:26:16.091Z,100037.40
2022-12-24T03:27:48.423Z,100038.60
2022-12-24T03:29:20.805Z,100044.40
2022-12-24T03:30:52.971Z,100042.00
2022-12-24T03:32:33.034Z,100035.00
2022-12-24T03:34:04.894Z,100036.20
2022-12-24T03:35:36.745Z,100038.60
2022-12-24T03:37:08.584Z,100043.60
2022-12-24T03:38:41.045Z,100048.60
2022-12-24T03:40:13.231Z,100053.60
2022-12-24T03:41:45.017Z,100051.20
2022-12-24T03:43:16.767Z,100061.20
2022-12-24T03:44:48.585Z,100062.80
2022-12-24T03:46:20.352Z,100060.40
2022-12-24T03:47:52.280Z,100063.00
2022-12-24T03:49:24.030Z,100062.40
2022-12-24T03:50:55.752Z,100062.20
2022-12-24T03:52:28.459Z,100063.60
2022-12-24T03:54:00.940Z,100067.00
2022-12-24T03:55:32.663Z,100060.00
2022-12-24T03:57:04.732Z,100061.00
2022-12-24T03:58:36.576Z,100063.20
2022-12-24T04:00:09.323Z,100069.60
2022-12-24T04:01:43.698Z,100075.80
2022-12-24T04:03:15.639Z,100074.00
2022-12-24T04:04:47.632Z,100075.60
2022-12-24T04:06:19.358Z,100075.60
2022-12-24T04:07:51.130Z,100072.20
2022-12-24T04:09:23.004Z,100077.60
2022-12-24T04:10:54.700Z,100080.60
2022-12-24T04:12:26.405Z,100072.00
2022-12-24T04:13:58.835Z,100071.00
2022-12-24T04:15:30.607Z,100070.40
2022-12-24T04:17:02.722Z,100066.40
2022-12-24T04:18:35.934Z,100070.00
2022-12-24T04:20:09.087Z,100073.80
2022-12-24T04:21:40.942Z,100074.60
2022-12-24T04:23:12.710Z,100076.60
2022-12-24T04:24:44.715Z,100080.80
2022-12-24T04:26:16.997Z,100085.40
2022-12-24T04:27:48.711Z,100084.80
2022-12-24T04:29:20.495Z,100085.00
2022-12-24T04:30:52.229Z,100085.80
2022-12-24T04:32:27.031Z,100091.00
2022-12-24T04:33:58.898Z,100093.60
2022-12-24T04:35:30.826Z,100090.00
2022-12-24T04:37:03.811Z,100093.20
2022-12-24T04:38:35.868Z,100101.00
2022-12-24T04:40:08.681Z,100107.00
2022-12-24T04:41:40.392Z,100113.60
2022-12-24T04:43:12.164Z,100101.00
2022-12-24T04:44:43.927Z,100102.80
2022-12-24T04:46:23.220Z,100101.80
2022-12-24T04:47:55.108Z,100110.60
2022-12-24T04:49:27.167Z,100112.20
2022-12-24T04:51:03.321Z,100113.40
2022-12-24T04:52:35.088Z,100110.20
2022-12-24T04:54:06.847Z,100110.60
2022-12-24T04:55:38.590Z,100103.80
2022-12-24T04:57:10.355Z,100107.40
2022-12-24T04:58:42.273Z,100110.40
2022-12-24T05:00:14.761Z,100107.40
2022-12-24T05:01:46.532Z,100109.00
2022-12-24T05:03:18.554Z,100110.00
2022-12-24T05:04:50.932Z,100111.60
2022-12-24T05:06:27.088Z,100111.80
2022-12-24T05:07:59.349Z,100110.80
2022-12-24T05:09:31.116Z,100109.40
2022-12-24T05:11:03.894Z,100115.80
2022-12-24T05:12:35.623Z,100114.80
2022-12-24T05:14:07.380Z,100117.20
2022-12-24T05:15:39.123Z,100118.60
2022-12-24T05:17:10.995Z,100121.60
2022-12-24T05:18:42.985Z,100119.80
2022-12-24T05:20:15.095Z,100120.40
2022-12-24T05:22:06.798Z,100125.20
2022-12-24T05:23:57.506Z,100119.00
2022-12-24T05:25:56.904Z,100119.40
2022-12-24T05:27:29.077Z,100121.60
2022-12-24T05:29:02.677Z,100119.80
2022-12-24T05:30:34.450Z,100116.00
2022-12-24T05:32:06.410Z,100115.20
2022-12-24T05:33:38.528Z,100114.60
2022-12-24T05:35:10.396Z,100118.60
2022-12-24T05:36:43.457Z,100119.80
2022-12-24T05:38:15.191Z,100122.60
2022-12-24T05:39:46.934Z,100118.60
2022-12-24T05:41:19.447Z,100117.40
2022-12-24T05:42:51.456Z,100123.00
2022-12-24T05:44:23.203Z,100114.00
2022-12-24T05:46:04.575Z,100128.00
2022-12-24T05:47:42.902Z,100128.60
2022-12-24T05:49:15.288Z,100132.60
2022-12-24T05:50:47.032Z,100133.60
2022-12-24T05:52:18.993Z,100138.00
2022-12-24T05:53:52.563Z,100138.60
2022-12-24T05:55:24.251Z,100142.60
2022-12-24T05:56:55.979Z,100147.40
2022-12-24T05:58:27.734Z,100144.00
2022-12-24T05:59:59.480Z,100135.80
2022-12-24T06:01:31.301Z,100136.80
2022-12-24T06:03:03.289Z,100137.20
2022-12-24T06:04:35.105Z,100142.80
2022-12-24T06:06:19.205Z,100142.40
2022-12-24T06:07:51.248Z,100144.60
2022-12-24T06:09:22.995Z,100145.40
2022-12-24T06:10:58.135Z,100145.60
2022-12-24T06:12:30.379Z,100150.60
2022-12-24T06:14:02.133Z,100144.60
2022-12-24T06:15:36.477Z,100146.00
2022-12-24T06:17:08.447Z,100143.60
2022-12-24T06:18:40.406Z,100151.40
2022-12-24T06:20:12.207Z,100151.20
2022-12-24T06:21:43.978Z,100154.00
2022-12-24T06:23:15.699Z,100166.20
2022-12-24T06:24:47.476Z,100165.60
2022-12-24T06:26:22.978Z,100171.20
2022-12-24T06:27:54.682Z,100171.80
2022-12-24T06:29:27.475Z,100166.40
2022-12-24T06:31:03.313Z,100181.40
2022-12-24T06:32:35.395Z,100181.40
2022-12-24T06:34:07.114Z,100178.80
2022-12-24T06:35:38.826Z,100185.20
2022-12-24T06:37:18.218Z,100186.80
2022-12-24T06:38:52.092Z,100186.20
2022-12-24T06:40:23.796Z,100190.00
2022-12-24T06:41:55.607Z,100194.00
2022-12-24T06:43:27.329Z,100188.20
2022-12-24T06:45:03.944Z,100193.40
2022-12-24T06:46:39.748Z,100186.00
2022-12-24T06:48:11.700Z,100185.40
2022-12-24T06:49:43.456Z,100187.00
2022-12-24T06:51:19.606Z,100196.60
2022-12-24T06:52:51.298Z,100192.20
2022-12-24T06:54:23.015Z,100195.20
2022-12-24T06:56:03.380Z,100200.20
2022-12-24T06:57:35.156Z,100206.80
2022-12-24T06:59:06.833Z,100215.20
2022-12-24T07:00:38.625Z,100209.40
2022-12-24T07:02:10.552Z,100214.60
2022-12-24T07:03:42.871Z,100215.00
2022-12-24T07:05:15.213Z,100214.20
2022-12-24T07:06:46.950Z,100209.40
2022-12-24T07:08:18.682Z,100210.20
2022-12-24T07:09:50.456Z,100216.00
2022-12-24T07:11:24.809Z,100212.80
2022-12-24T07:12:56.542Z,100214.40
2022-12-24T07:14:28.275Z,100221.20
2022-12-24T07:16:02.889Z,100215.40
2022-12-24T07:17:35.284Z,100215.40
2022-12-24T07:19:07.166Z,100215.80
2022-12-24T07:20:39.544Z,100218.40
2022-12-24T07:22:15.419Z,100221.20
2022-12-24T07:23:47.672Z,100222.20
2022-12-24T07:25:19.367Z,100226.60
2022-12-24T07:26:52.374Z,100227.00
2022-12-24T07:28:27.801Z,100225.00
2022-12-24T07:29:59.808Z,100225.40
2022-12-24T07:31:31.607Z,100227.80
2022-12-24T07:33:03.682Z,100232.80
2022-12-24T07:34:35.981Z,100232.00
2022-12-24T07:36:10.643Z,100233.60
2022-12-24T07:37:42.369Z,100237.60
2022-12-24T07:39:14.200Z,100243.40
2022-12-24T07:40:45.882Z,100244.00
2022-12-24T07:42:17.561Z,100245.80
2022-12-24T07:43:49.352Z,100253.20
2022-12-24T07:45:21.047Z,100254.60
2022-12-24T07:46:52.811Z,100246.00
2022-12-24T07:48:27.924Z,100256.00
2022-12-24T07:49:59.748Z,100259.20
2022-12-24T07:51:31.646Z,100255.40
2022-12-24T07:53:03.365Z,100259.80
2022-12-24T07:54:35.377Z,100265.00
2022-12-24T07:56:12.463Z,100264.00
2022-12-24T07:57:44.656Z,100259.40
2022-12-24T07:59:16.428Z,100270.80
2022-12-24T08:00:48.366Z,100260.80
2022-12-24T08:02:21.253Z,100276.20
2022-12-24T08:03:54.671Z,100268.00
2022-12-24T08:05:27.790Z,100276.40
2022-12-24T08:06:59.518Z,100277.00
2022-12-24T08:08:31.269Z,100282.00
2022-12-24T08:10:03.418Z,100288.00
2022-12-24T08:11:35.258Z,100292.40
2022-12-24T08:13:07.222Z,100297.60
2022-12-24T08:14:38.933Z,100296.00
2022-12-24T08:16:10.936Z,100297.00
2022-12-24T08:17:42.735Z,100291.20
2022-12-24T08:19:14.650Z,100302.60
2022-12-24T08:20:46.465Z,100305.00
2022-12-24T08:22:18.167Z,100307.40
2022-12-24T08:23:49.938Z,100308.40
2022-12-24T08:25:21.877Z,100308.60
2022-12-24T08:26:53.563Z,100308.60
2022-12-24T08:28:25.572Z,100309.20
2022-12-24T08:29:57.304Z,100313.00
2022-12-24T08:31:29.106Z,100315.40
2022-12-24T08:33:00.965Z,100318.20
2022-12-24T08:36:23.548Z,100336.00
2022-12-24T08:37:55.397Z,100336.80
2022-12-24T08:39:27.328Z,100341.20
2022-12-24T08:40:59.323Z,100336.80
2022-12-24T08:42:31.235Z,100339.00
2022-12-24T08:44:04.675Z,100347.20
2022-12-24T08:45:41.041Z,100345.60
2022-12-24T08:47:13.650Z,100343.40
2022-12-24T08:48:45.629Z,100342.60
2022-12-24T08:50:17.597Z,100342.40
2022-12-24T08:51:51.824Z,100343.20
2022-12-24T08:53:23.745Z,100345.80
2022-12-24T08:54:55.695Z,100346.00
2022-12-24T08:56:27.598Z,100348.00
2022-12-24T08:58:00.976Z,100356.20
2022-12-24T08:59:33.078Z,100358.60
2022-12-24T09:01:18.468Z,100361.40
2022-12-24T09:02:50.767Z,100369.00
2022-12-24T09:04:22.742Z,100364.40
2022-12-24T09:05:55.030Z,100373.80
2022-12-24T09:07:26.858Z,100374.80
2022-12-24T09:08:59.421Z,100372.80
2022-12-24T09:10:31.288Z,100373.20
2022-12-24T09:12:07.533Z,100371.20
2022-12-24T09:13:40.537Z,100380.40
2022-12-24T09:15:14.298Z,100381.00
2022-12-24T09:16:46.333Z,100385.60
2022-12-24T09:18:21.063Z,100386.60
2022-12-24T09:19:52.805Z,100390.00
2022-12-24T09:21:28.794Z,100387.60
2022-12-24T09:23:00.803Z,100388.40
2022-12-24T09:24:35.559Z,100391.60
2022-12-24T09:26:19.294Z,100389.00
2022-12-24T09:27:52.025Z,100393.20
2022-12-24T09:29:25.762Z,100397.20
2022-12-24T09:31:00.438Z,100404.80
2022-12-24T09:32:34.656Z,100405.60
2022-12-24T09:34:07.518Z,100413.60
2022-12-24T09:35:39.398Z,100412.20
2022-12-24T09:37:11.346Z,100415.60
2022-12-24T09:38:43.409Z,100420.20
2022-12-24T09:40:29.145Z,100417.80
2022-12-24T09:42:16.208Z,100420.40
2022-12-24T09:43:56.733Z,100423.20
2022-12-24T09:45:39.421Z,100429.80
2022-12-24T09:47:43.959Z,100428.40
2022-12-24T09:49:25.929Z,100432.20
2022-12-24T09:51:11.013Z,100433.40
2022-12-24T09:52:47.585Z,100440.20
2022-12-24T09:54:33.260Z,100440.80
2022-12-24T09:56:29.805Z,100443.80
2022-12-24T09:58:05.968Z,100445.80
2022-12-24T09:59:48.945Z,100449.60
2022-12-24T10:01:22.131Z,100455.00
2022-12-24T10:02:54.331Z,100455.40
2022-12-24T10:04:31.312Z,100456.00
2022-12-24T10:06:12.743Z,100456.20
2022-12-24T10:08:06.635Z,100455.80
2022-12-24T10:09:56.645Z,100462.40
2022-12-24T10:12:06.147Z,100458.60
2022-12-24T10:14:01.998Z,100460.00
2022-12-24T10:16:05.398Z,100467.00
2022-12-24T10:17:53.708Z,100470.20
2022-12-24T10:19:49.649Z,100467.20
2022-12-24T10:21:46.608Z,100470.20
2022-12-24T10:23:44.465Z,100466.80
2022-12-24T10:25:45.853Z,100463.40
2022-12-24T10:27:24.923Z,100470.00
2022-12-24T10:29:14.601Z,100461.80
2022-12-24T10:30:57.401Z,100477.80
2022-12-24T10:32:35.295Z,100480.20
2022-12-24T10:34:22.861Z,100477.20
2022-12-24T10:35:58.660Z,100487.60
2022-12-24T10:37:31.618Z,100484.60
2022-12-24T10:39:03.854Z,100488.00
2022-12-24T10:40:47.083Z,100481.20
2022-12-24T10:42:25.175Z,100478.60
2022-12-24T10:43:59.983Z,100472.80
2022-12-24T10:45:42.457Z,100468.60
2022-12-24T10:47:15.092Z,100478.20
2022-12-24T10:49:21.495Z,100474.00
2022-12-24T10:51:07.927Z,100465.80
2022-12-24T10:52:45.615Z,100467.60
2022-12-24T10:54:27.485Z,100452.40
2022-12-24T10:56:07.679Z,100455.00
2022-12-24T10:57:58.270Z,100470.80
2022-12-24T10:59:51.927Z,100464.00
2022-12-24T11:02:02.736Z,100458.20
2022-12-24T11:03:39.600Z,100471.40
2022-12-24T11:05:35.489Z,100465.60
2022-12-24T11:07:22.187Z,100456.40
2022-12-24T11:08:56.166Z,100464.60
2022-12-24T11:10:28.227Z,100466.40
2022-12-24T11:12:09.265Z,100459.00
2022-12-24T11:13:57.272Z,100466.40
2022-12-24T11:16:05.750Z,100463.20
2022-12-24T11:17:37.936Z,100464.80
2022-12-24T11:19:20.300Z,100469.20
2022-12-24T11:20:53.658Z,100470.00
2022-12-24T11:22:32.035Z,100465.40
2022-12-24T11:24:12.942Z,100461.20
2022-12-24T11:25:51.841Z,100474.40
2022-12-24T11:27:46.051Z,100468.80
2022-12-24T11:29:27.265Z,100464.00
2022-12-24T11:31:18.086Z,100462.40
2022-12-24T11:33:01.023Z,100454.60
2022-12-24T11:34:33.405Z,100449.80
2022-12-24T11:36:12.329Z,100451.00
2022-12-24T11:37:45.095Z,100450.80
2022-12-24T11:39:25.888Z,100454.60
2022-12-24T11:41:11.704Z,100450.00
2022-12-24T11:42:44.364Z,100451.00
2022-12-24T11:44:27.236Z,100460.80
2022-12-24T11:46:18.229Z,100457.40
2022-12-24T11:47:52.218Z,100461.00
2022-12-24T11:49:29.784Z,100457.60
2022-12-24T11:51:06.071Z,100457.40
2022-12-24T11:52:38.345Z,100469.20
2022-12-24T11:54:23.642Z,100468.80
2022-12-24T11:56:06.670Z,100468.20
2022-12-24T11:58:06.773Z,100465.20
2022-12-24T11:59:45.422Z,100473.80
2022-12-24T12:01:23.805Z,100477.60
2022-12-24T12:03:00.987Z,100479.80
2022-12-24T12:04:39.086Z,100471.60
2022-12-24T12:06:24.897Z,100478.20
2022-12-24T12:08:13.315Z,100470.60
2022-12-24T12:09:57.556Z,100472.00
2022-12-24T12:11:31.350Z,100471.20
2022-12-24T12:13:15.322Z,100471.80
2022-12-24T12:15:01.867Z,100476.80
2022-12-24T12:17:06.217Z,100485.60
2022-12-24T12:18:48.042Z,100487.80
2022-12-24T12:20:31.081Z,100489.20
2022-12-24T12:22:11.300Z,100489.20
2022-12-24T12:24:01.905Z,100484.80
2022-12-24T12:26:00.659Z,100484.60
2022-12-24T12:27:43.211Z,100485.80
2022-12-24T12:29:32.058Z,100498.00
2022-12-24T12:31:15.779Z,100499.40
2022-12-24T12:33:02.804Z,100496.80
2022-12-24T12:34:46.590Z,100499.20
2022-12-24T12:36:28.757Z,100505.20
2022-12-24T12:38:06.590Z,100505.80
2022-12-24T12:39:38.576Z,100500.60
2022-12-24T12:41:48.551Z,100503.20
2022-12-24T12:43:58.851Z,100501.40
2022-12-24T12:46:14.720Z,100500.00
2022-12-24T12:48:44.303Z,100501.80
2022-12-24T12:50:33.522Z,100499.60
2022-12-24T12:52:23.845Z,100507.00
2022-12-24T12:54:08.668Z,100508.80
2022-12-24T12:55:49.513Z,100517.00
2022-12-24T12:57:28.670Z,100516.00
2022-12-24T12:59:12.730Z,100513.40
2022-12-24T13:00:49.514Z,100520.80
2022-12-24T13:03:13.222Z,100522.20
2022-12-24T13:05:26.198Z,100519.40
2022-12-24T13:07:19.447Z,100514.20
2022-12-24T13:09:21.584Z,100515.00
2022-12-24T13:11:14.347Z,100516.00
2022-12-24T13:13:06.975Z,100516.20
2022-12-24T13:14:59.887Z,100525.80
2022-12-24T13:17:33.648Z,100528.60
2022-12-24T13:19:14.601Z,100533.40
2022-12-24T13:20:49.928Z,100537.80
2022-12-24T13:22:23.049Z,100540.60
2022-12-24T13:24:18.885Z,100540.20
2022-12-24T13:25:57.958Z,100550.40
2022-12-24T13:27:35.370Z,100547.80
2022-12-24T13:29:36.392Z,100554.80
2022-12-24T13:31:17.149Z,100555.80
2022-12-24T13:32:54.172Z,100555.40
2022-12-24T13:34:37.628Z,100558.40
2022-12-24T13:36:18.721Z,100563.60
2022-12-24T13:37:51.931Z,100564.20
2022-12-24T13:39:25.179Z,100564.00
2022-12-24T13:41:38.173Z,100562.80
2022-12-24T13:43:12.426Z,100569.60
2022-12-24T13:44:44.192Z,100569.60
2022-12-24T13:47:00.529Z,100561.40
2022-12-24T13:48:34.666Z,100561.00
2022-12-24T13:50:24.420Z,100566.60
2022-12-24T13:52:12.567Z,100571.80
2022-12-24T13:53:48.658Z,100569.80
2022-12-24T13:55:21.795Z,100568.20
2022-12-24T13:56:53.694Z,100567.60
2022-12-24T13:58:26.236Z,100568.60
2022-12-24T14:00:13.187Z,100564.60
2022-12-24T14:01:45.540Z,100567.20
2022-12-24T14:03:28.473Z,100570.60
2022-12-24T14:05:08.622Z,100574.40
2022-12-24T14:06:42.679Z,100580.20
2022-12-24T14:08:23.527Z,100570.20
2022-12-24T14:09:58.471Z,100571.00
2022-12-24T14:11:59.297Z,100570.00
2022-12-24T14:13:40.039Z,100574.00
2022-12-24T14:15:48.623Z,100574.60
2022-12-24T14:17:29.876Z,100578.60
2022-12-24T14:19:20.803Z,100581.40
2022-12-24T14:20:59.221Z,100581.20
2022-12-24T14:22:32.977Z,100581.00
2022-12-24T14:24:17.836Z,100582.80
2022-12-24T14:25:49.709Z,100588.60
2022-12-24T14:27:46.305Z,100585.80
2022-12-24T14:29:32.740Z,100587.00
2022-12-24T14:31:13.408Z,100589.80
2022-12-24T14:32:47.031Z,100591.20
2022-12-24T14:34:18.952Z,100595.80
2022-12-24T14:35:50.699Z,100600.20
2022-12-24T14:37:22.689Z,100602.00
2022-12-24T14:38:54.641Z,100604.80
2022-12-24T14:40:30.635Z,100607.60
2022-12-24T14:42:29.249Z,100613.80
2022-12-24T14:44:35.904Z,100616.20
2022-12-24T14:46:46.235Z,100613.60
2022-12-24T14:48:50.147Z,100615.20
2022-12-24T14:50:55.016Z,100616.20
2022-12-24T14:53:05.320Z,100623.20
2022-12-24T14:54:43.298Z,100625.20
2022-12-24T14:56:21.148Z,100626.40
2022-12-24T14:58:23.274Z,100632.60
2022-12-24T15:00:02.102Z,100637.00
2022-12-24T15:01:36.752Z,100635.60
2022-12-24T15:03:14.839Z,100636.80
2022-12-24T15:05:02.108Z,100635.00
2022-12-24T15:06:38.490Z,100635.20
2022-12-24T15:08:18.617Z,100642.40
2022-12-24T15:09:50.352Z,100640.00
2022-12-24T15:11:24.332Z,100641.20
2022-12-24T15:13:01.865Z,100639.20
2022-12-24T15:14:44.028Z,100644.60
2022-12-24T15:16:26.855Z,100650.60
2022-12-24T15:18:00.099Z,100652.80
2022-12-24T15:19:37.575Z,100652.80
2022-12-24T15:21:20.056Z,100659.80
2022-12-24T15:22:56.082Z,100666.60
2022-12-24T15:24:43.700Z,100669.00
2022-12-24T15:26:37.022Z,100670.80
2022-12-24T15:28:19.828Z,100665.80
2022-12-24T15:29:56.992Z,100667.80
2022-12-24T15:31:30.641Z,100670.80
2022-12-24T15:33:02.506Z,100671.00
2022-12-24T15:34:47.010Z,100675.00
2022-12-24T15:36:39.372Z,100678.00
2022-12-24T15:38:32.754Z,100677.40
2022-12-24T15:40:19.029Z,100680.60
2022-12-24T15:42:10.788Z,100682.20
2022-12-24T15:43:46.205Z,100683.00
2022-12-24T15:45:28.978Z,100685.20
2022-12-24T15:47:03.162Z,100692.80
2022-12-24T15:48:38.244Z,100692.60
2022-12-24T15:50:44.411Z,100696.20
2022-12-24T15:52:24.231Z,100700.00
2022-12-24T15:54:04.394Z,100702.00
2022-12-24T15:55:47.062Z,100699.80
2022-12-24T15:59:39.505Z,100698.80
2022-12-24T16:01:14.422Z,100702.80
2022-12-24T16:02:46.656Z,100696.80
2022-12-24T16:04:29.288Z,100703.60
2022-12-24T16:06:02.190Z,100700.00
2022-12-24T16:07:53.920Z,100704.60
2022-12-24T16:15:01.295Z,100706.40
2022-12-24T16:16:48.019Z,100707.40
2022-12-24T16:18:27.756Z,100709.20
2022-12-24T16:20:07.626Z,100715.00
2022-12-24T16:21:43.466Z,100712.60
2022-12-24T16:23:23.547Z,100712.80
2022-12-24T16:24:56.325Z,100704.80
2022-12-24T16:26:28.416Z,100702.20
2022-12-24T16:28:00.995Z,100697.20
2022-12-24T16:29:34.196Z,100701.20
2022-12-24T16:31:06.288Z,100708.60
2022-12-24T16:32:44.356Z,100705.40
2022-12-24T16:34:19.191Z,100705.80
2022-12-24T16:35:50.992Z,100704.60
2022-12-24T16:37:23.142Z,100706.00
2022-12-24T16:39:13.649Z,100707.80
2022-12-24T16:40:45.473Z,100705.40
2022-12-24T16:42:35.883Z,100706.40
2022-12-24T16:44:07.668Z,100708.00
2022-12-24T16:45:39.529Z,100708.40
2022-12-24T16:47:26.274Z,100708.20
2022-12-24T16:48:58.126Z,100712.00
2022-12-24T16:50:29.988Z,100722.40
2022-12-24T16:52:01.762Z,100726.40
2022-12-24T16:53:33.859Z,100727.40
2022-12-24T16:55:05.994Z,100723.60
2022-12-24T16:56:37.838Z,100725.80
2022-12-24T16:58:15.039Z,100730.40
2022-12-24T16:59:47.060Z,100735.60
2022-12-24T17:01:19.028Z,100738.20
2022-12-24T17:02:51.191Z,100736.80
2022-12-24T17:04:23.283Z,100735.80
2022-12-24T17:05:55.058Z,100737.00
2022-12-24T17:07:26.892Z,100739.40
2022-12-24T17:08:58.804Z,100741.00
2022-12-24T17:10:30.702Z,100740.00
2022-12-24T17:12:02.496Z,100746.00
2022-12-24T17:13:34.354Z,100745.20
2022-12-24T17:15:06.921Z,100737.00
2022-12-24T17:16:39.393Z,100741.40
2022-12-24T17:18:11.172Z,100741.00
2022-12-24T17:19:43.932Z,100741.20
2022-12-24T17:21:18.108Z,100745.60
2022-12-24T17:22:58.870Z,100747.00
2022-12-24T17:24:31.621Z,100751.00
2022-12-24T17:26:08.929Z,100746.20
2022-12-24T17:27:44.621Z,100748.20
2022-12-24T17:29:16.365Z,100747.40
2022-12-24T17:30:48.309Z,100749.40
2022-12-24T17:32:20.467Z,100748.40
2022-12-24T17:33:54.206Z,100745.20
2022-12-24T17:35:26.461Z,100743.60
2022-12-24T17:36:58.236Z,100745.20
2022-12-24T17:38:32.455Z,100745.20
2022-12-24T17:40:05.726Z,100740.40
2022-12-24T17:41:37.620Z,100739.00
2022-12-24T17:43:09.474Z,100741.20
2022-12-24T17:44:42.701Z,100739.60
2022-12-24T17:46:24.057Z,100740.20
2022-12-24T17:47:56.073Z,100745.60
2022-12-24T17:49:30.277Z,100748.40
2022-12-24T17:51:10.023Z,100750.60
2022-12-24T17:52:44.803Z,100753.40
2022-12-24T17:54:16.598Z,100746.80
2022-12-24T17:55:48.619Z,100743.00
2022-12-24T17:57:20.827Z,100748.20
2022-12-24T17:58:52.841Z,100749.80
2022-12-24T18:00:28.113Z,100749.00
2022-12-24T18:02:04.903Z,100748.00
2022-12-24T18:03:38.628Z,100748.40
2022-12-24T18:05:10.552Z,100749.80
2022-12-24T18:06:48.845Z,100753.20
2022-12-24T18:08:21.400Z,100757.80
2022-12-24T18:09:53.315Z,100762.00
2022-12-24T18:11:32.619Z,100762.80
2022-12-24T18:13:07.913Z,100768.00
2022-12-24T18:14:39.891Z,100763.80
2022-12-24T18:16:27.361Z,100766.00
2022-12-24T18:18:06.735Z,100768.60
2022-12-24T18:19:39.387Z,100767.00
2022-12-24T18:21:11.607Z,100766.80
2022-12-24T18:22:45.475Z,100765.20
2022-12-24T18:24:18.419Z,100766.40
2022-12-24T18:25:50.296Z,100763.40
2022-12-24T18:27:22.118Z,100765.80
2022-12-24T18:28:59.521Z,100766.80
2022-12-24T18:30:31.527Z,100764.20
2022-12-24T18:32:03.442Z,100759.80
2022-12-24T18:33:36.424Z,100756.20
2022-12-24T18:35:09.301Z,100756.80
2022-12-24T18:36:41.673Z,100755.20
2022-12-24T18:38:13.574Z,100751.60
2022-12-24T18:39:45.492Z,100752.60
2022-12-24T18:41:23.555Z,100752.80
2022-12-24T18:42:55.471Z,100754.60
2022-12-24T18:44:27.401Z,100757.40
2022-12-24T18:45:59.281Z,100759.80
2022-12-24T18:47:31.084Z,100764.00
2022-12-24T18:49:04.351Z,100764.00
2022-12-24T18:50:41.361Z,100762.80
2022-12-24T18:52:22.434Z,100763.80
2022-12-24T18:53:55.232Z,100761.60